Terminal Aerodrome Forecast
Issued by NWS Grand Forks, ND

Home | Current Version | Previous Version | Text Only | Print | Product List | Glossary Off
Versions: 1 2 3 4 5 6 7 8 9 10 11

000
FTUS43 KFGF 241700
TAFFAR
TAF
KFAR 241725Z 2418/2518 33015G22KT P6SM SCT015
      TEMPO 2418/2421 BKN015
     FM242100 34016KT P6SM FEW250
     FM250200 36004KT P6SM OVC120
     FM250900 01007KT P6SM OVC100=

USA.gov is the U.S. government's official web portal to all federal, state and local government web resources and services.